Time;durP1;ratioP1;P1;durP2;ratioP2;P2;SDS_P1;SDS_P2;PMS_P1;PMS_P2;Temp;Humidity;BMP_temperature;BMP_pressure;BME280_temperature;BME280_humidity;BME280_pressure;Samples;Min_cycle;Max_cycle;Signal;HPM_P1;HPM_P2
2022/05/24 00:00:16;;;;;;;2.78;1.98;;;19.70;99.90;;;;;;5145066;27;20158;-65
2022/05/24 00:02:42;;;;;;;3.33;1.95;;;19.80;99.90;;;;;;5136147;27;20664;-65
2022/05/24 00:05:09;;;;;;;2.67;2.03;;;19.70;99.90;;;;;;5136266;27;20165;-64
2022/05/24 00:07:35;;;;;;;2.67;2.10;;;19.70;99.90;;;;;;5137391;27;20308;-65
2022/05/24 00:10:02;;;;;;;4.53;2.03;;;19.70;99.90;;;;;;5136385;27;20576;-64
2022/05/24 00:12:28;;;;;;;2.63;2.28;;;19.70;99.90;;;;;;5136618;27;20165;-67
2022/05/24 00:17:38;;;;;;;3.70;2.22;;;19.70;99.90;;;;;;5147186;27;20164;-66
2022/05/24 00:20:05;;;;;;;3.95;2.25;;;19.70;99.90;;;;;;5145504;27;20244;-66
2022/05/24 00:22:30;;;;;;;3.33;2.05;;;19.70;99.90;;;;;;5151637;27;20216;-67
2022/05/24 00:25:01;;;;;;;3.65;2.15;;;19.70;99.90;;;;;;5140772;27;20162;-67
2022/05/24 00:27:27;;;;;;;3.85;2.20;;;19.60;99.90;;;;;;5136294;27;20207;-65
2022/05/24 00:29:53;;;;;;;2.75;2.03;;;19.60;99.90;;;;;;5136304;27;20150;-66
2022/05/24 00:32:19;;;;;;;2.05;1.92;;;19.70;99.90;;;;;;5136041;27;20249;-66
2022/05/24 00:34:44;;;;;;;4.20;2.50;;;19.70;99.90;;;;;;5136574;27;20482;-66
2022/05/24 00:37:10;;;;;;;2.70;2.13;;;19.60;99.90;;;;;;5135602;27;20262;-65
2022/05/24 00:39:35;;;;;;;6.72;2.40;;;19.50;99.90;;;;;;5136496;27;20192;-66
2022/05/24 00:42:24;;;;;;;2.60;2.20;;;19.50;99.90;;;;;;5137298;27;20197;-65
2022/05/24 00:45:06;;;;;;;4.28;2.40;;;19.50;99.90;;;;;;5153417;27;20172;-66
2022/05/24 00:47:37;;;;;;;4.70;2.03;;;19.50;99.90;;;;;;5137352;27;20161;-65
2022/05/24 00:50:09;;;;;;;3.90;2.22;;;19.50;99.90;;;;;;5136464;27;20154;-65
2022/05/24 00:52:53;;;;;;;2.53;2.00;;;19.30;99.90;;;;;;5136085;27;20168;-65
2022/05/24 00:55:22;;;;;;;6.00;2.20;;;19.40;99.90;;;;;;5136068;27;20207;-65
2022/05/24 00:58:01;;;;;;;4.18;1.90;;;19.30;99.90;;;;;;5135310;27;20237;-66
2022/05/24 01:00:27;;;;;;;6.88;2.30;;;19.30;99.90;;;;;;5135803;27;20162;-67
2022/05/24 01:02:52;;;;;;;6.22;2.10;;;19.30;99.90;;;;;;5136357;27;20209;-67
2022/05/24 01:05:26;;;;;;;5.18;2.20;;;19.30;99.90;;;;;;5136433;27;20197;-65
2022/05/24 01:07:52;;;;;;;3.28;2.63;;;19.30;99.90;;;;;;5140419;27;20231;-67
2022/05/24 01:10:32;;;;;;;4.25;2.20;;;19.30;99.90;;;;;;5136032;27;20146;-66
2022/05/24 01:13:10;;;;;;;3.20;2.10;;;19.30;99.90;;;;;;5135662;27;20197;-67
2022/05/24 01:15:37;;;;;;;5.95;2.50;;;19.30;99.90;;;;;;5135415;27;20172;-66
2022/05/24 01:18:04;;;;;;;6.72;2.42;;;19.30;99.90;;;;;;5135677;27;20162;-65
2022/05/24 01:20:30;;;;;;;2.40;2.20;;;19.40;99.90;;;;;;5135055;27;20613;-65
2022/05/24 01:22:59;;;;;;;5.30;2.13;;;19.30;99.90;;;;;;5135582;27;20196;-65
2022/05/24 01:25:42;;;;;;;4.80;2.58;;;19.30;99.90;;;;;;5135295;27;20492;-65
2022/05/24 01:28:34;;;;;;;3.95;2.28;;;19.30;99.90;;;;;;5135500;27;20164;-66
2022/05/24 01:31:01;;;;;;;2.75;2.47;;;19.30;99.90;;;;;;5134487;27;20181;-66
2022/05/24 01:36:11;;;;;;;5.40;2.30;;;19.20;99.90;;;;;;5134917;27;20214;-65
2022/05/24 01:38:47;;;;;;;4.30;2.08;;;19.30;99.90;;;;;;5134995;27;20154;-67
2022/05/24 01:41:23;;;;;;;3.38;2.33;;;19.20;99.90;;;;;;5135640;27;20636;-65
2022/05/24 01:43:51;;;;;;;6.78;2.25;;;19.20;99.90;;;;;;5136916;27;20164;-65
2022/05/24 01:46:21;;;;;;;2.65;2.00;;;19.20;99.90;;;;;;5137517;27;20166;-65
2022/05/24 01:48:57;;;;;;;4.53;2.17;;;19.20;99.90;;;;;;5138465;27;20154;-65
2022/05/24 01:51:27;;;;;;;6.18;2.30;;;19.20;99.90;;;;;;5144866;28;20189;-66
2022/05/24 01:53:57;;;;;;;2.92;2.20;;;19.10;99.90;;;;;;5147315;28;20161;-66
2022/05/24 01:56:42;;;;;;;4.95;2.45;;;19.20;99.90;;;;;;5128527;28;20169;-67
2022/05/24 01:59:09;;;;;;;4.55;2.40;;;19.20;99.90;;;;;;5137712;28;20608;-66
2022/05/24 02:01:46;;;;;;;3.22;2.50;;;19.00;99.90;;;;;;5134692;28;20233;-68
2022/05/24 02:04:13;;;;;;;3.67;2.33;;;19.20;99.90;;;;;;5135374;28;20232;-66
2022/05/24 02:06:39;;;;;;;5.57;2.50;;;19.20;99.90;;;;;;5134400;28;20217;-66
2022/05/24 02:09:06;;;;;;;2.72;2.42;;;19.20;99.90;;;;;;5134713;28;20165;-66
2022/05/24 02:11:33;;;;;;;3.72;2.10;;;19.10;99.90;;;;;;5134668;28;20539;-65
2022/05/24 02:14:14;;;;;;;2.95;2.03;;;19.10;99.90;;;;;;5139332;28;20185;-67
2022/05/24 02:16:51;;;;;;;4.70;2.72;;;19.20;99.90;;;;;;5147472;28;20194;-68
2022/05/24 02:19:18;;;;;;;2.80;2.50;;;19.10;99.90;;;;;;5148257;28;20160;-67
2022/05/24 02:21:46;;;;;;;2.88;2.30;;;19.10;99.90;;;;;;5151216;28;20216;-67
2022/05/24 02:24:21;;;;;;;3.80;2.50;;;19.10;99.90;;;;;;5134973;28;20184;-65
2022/05/24 02:26:48;;;;;;;3.47;2.67;;;19.20;99.90;;;;;;5134268;28;20162;-68
2022/05/24 02:29:14;;;;;;;2.80;2.40;;;19.20;99.90;;;;;;5136496;28;20542;-67
2022/05/24 02:31:40;;;;;;;5.05;2.28;;;19.20;99.90;;;;;;5139909;28;20176;-66
2022/05/24 02:34:06;;;;;;;3.85;2.45;;;19.10;99.90;;;;;;5151079;27;20558;-65
2022/05/24 02:36:32;;;;;;;6.45;2.53;;;19.10;99.90;;;;;;5134342;27;20158;-68
2022/05/24 02:38:58;;;;;;;2.50;2.30;;;19.10;99.90;;;;;;5137787;27;20186;-66
2022/05/24 02:41:29;;;;;;;3.28;2.40;;;19.10;99.90;;;;;;5138670;27;20208;-65
2022/05/24 02:44:00;;;;;;;3.60;2.60;;;19.00;99.90;;;;;;5137825;27;20209;-68
2022/05/24 02:46:27;;;;;;;3.63;2.72;;;19.00;99.90;;;;;;5137905;27;20207;-65
2022/05/24 02:48:53;;;;;;;5.07;2.45;;;19.00;99.90;;;;;;5137882;27;20172;-66
2022/05/24 02:51:18;;;;;;;4.13;2.28;;;19.00;99.90;;;;;;5138168;27;20248;-65
2022/05/24 02:53:45;;;;;;;2.92;2.63;;;19.00;99.90;;;;;;5137765;27;20211;-65
2022/05/24 02:56:12;;;;;;;2.83;2.28;;;19.00;99.90;;;;;;5137223;27;20253;-65
2022/05/24 02:58:38;;;;;;;3.67;2.33;;;19.10;99.90;;;;;;5137424;27;20154;-67
2022/05/24 03:01:15;;;;;;;2.60;2.40;;;19.10;99.90;;;;;;5137191;27;20215;-66
2022/05/24 03:03:41;;;;;;;2.30;1.95;;;19.10;99.90;;;;;;5137572;27;20241;-65
2022/05/24 03:06:07;;;;;;;2.58;2.20;;;19.10;99.90;;;;;;5137124;27;20203;-66
2022/05/24 03:11:17;;;;;;;3.55;2.38;;;19.10;99.90;;;;;;5137146;27;20187;-67
2022/05/24 03:16:27;;;;;;;4.78;2.15;;;19.00;99.90;;;;;;5137300;27;20219;-65
2022/05/24 03:18:53;;;;;;;5.22;2.47;;;19.00;99.90;;;;;;5137593;27;20241;-64
2022/05/24 03:21:18;;;;;;;2.65;2.13;;;19.00;99.90;;;;;;5138146;27;20197;-68
2022/05/24 03:23:44;;;;;;;2.88;2.35;;;19.00;99.90;;;;;;5139277;27;20162;-64
2022/05/24 03:26:11;;;;;;;3.13;2.17;;;19.00;99.90;;;;;;5140351;27;20166;-65
2022/05/24 03:28:37;;;;;;;3.78;1.92;;;19.10;99.90;;;;;;5150309;27;20186;-69
2022/05/24 03:31:05;;;;;;;3.83;2.30;;;19.10;99.90;;;;;;5152972;27;20221;-65
2022/05/24 03:33:31;;;;;;;2.40;2.10;;;19.10;99.90;;;;;;5140620;27;20173;-65
2022/05/24 03:35:56;;;;;;;2.22;1.95;;;19.10;99.90;;;;;;5137177;27;20164;-65
2022/05/24 03:38:22;;;;;;;4.40;2.58;;;19.10;99.90;;;;;;5136856;27;20236;-66
2022/05/24 03:40:48;;;;;;;2.38;2.00;;;19.10;99.90;;;;;;5137967;27;20165;-65
2022/05/24 03:43:15;;;;;;;5.35;2.30;;;19.20;99.90;;;;;;5137371;27;20201;-65
2022/05/24 03:45:41;;;;;;;2.33;2.13;;;19.20;99.90;;;;;;5138180;27;20165;-68
2022/05/24 03:48:07;;;;;;;4.07;1.92;;;19.10;99.90;;;;;;5144026;27;20165;-66
2022/05/24 03:50:33;;;;;;;3.25;2.50;;;19.00;99.90;;;;;;5148314;27;20166;-65
2022/05/24 03:52:59;;;;;;;6.72;2.80;;;19.00;99.90;;;;;;5145253;27;20162;-65
2022/05/24 03:55:25;;;;;;;2.88;2.10;;;18.90;99.90;;;;;;5162213;27;20601;-65
2022/05/24 03:58:00;;;;;;;3.60;2.17;;;18.90;99.90;;;;;;5148776;27;20161;-67
2022/05/24 04:00:29;;;;;;;5.78;2.83;;;18.80;99.90;;;;;;5137123;27;20153;-65
2022/05/24 04:02:56;;;;;;;6.60;2.65;;;18.80;99.90;;;;;;5136938;27;20209;-65
2022/05/24 04:05:21;;;;;;;4.78;2.40;;;18.80;99.90;;;;;;5137281;27;20162;-65
2022/05/24 04:07:48;;;;;;;2.63;2.30;;;18.80;99.90;;;;;;5136759;27;20232;-65
2022/05/24 04:10:15;;;;;;;6.63;2.60;;;18.90;99.90;;;;;;5137805;27;20169;-68
2022/05/24 04:12:41;;;;;;;3.78;2.28;;;19.00;99.90;;;;;;5142260;27;20177;-65
2022/05/24 04:15:08;;;;;;;2.75;1.98;;;18.90;99.90;;;;;;5146060;27;20573;-66
2022/05/24 04:17:34;;;;;;;2.63;2.00;;;19.10;99.90;;;;;;5131878;27;20173;-64
2022/05/24 04:19:59;;;;;;;1.80;1.70;;;19.10;99.90;;;;;;5142484;27;20633;-66
2022/05/24 04:22:25;;;;;;;2.65;1.90;;;19.20;99.90;;;;;;5136664;27;20200;-66
2022/05/24 04:24:51;;;;;;;1.92;1.73;;;19.20;99.90;;;;;;5136811;27;20190;-65
2022/05/24 04:27:16;;;;;;;3.05;1.70;;;19.30;99.90;;;;;;5136398;27;20170;-65
2022/05/24 04:29:42;;;;;;;2.42;1.60;;;19.40;99.90;;;;;;5136535;27;20157;-65
2022/05/24 04:32:09;;;;;;;2.30;1.60;;;19.40;99.90;;;;;;5136531;27;20252;-65
2022/05/24 04:34:35;;;;;;;2.45;1.60;;;19.50;99.90;;;;;;5137036;27;20161;-64
2022/05/24 04:37:01;;;;;;;9.40;1.30;;;19.50;99.90;;;;;;5147168;27;20182;-66
2022/05/24 04:39:26;;;;;;;1.50;1.40;;;19.50;99.90;;;;;;5151464;27;20158;-68
2022/05/24 04:44:37;;;;;;;3.50;1.45;;;19.50;99.90;;;;;;5136456;27;20206;-66
2022/05/24 04:47:09;;;;;;;2.33;1.70;;;19.50;99.90;;;;;;5135981;27;20169;-65
2022/05/24 04:49:42;;;;;;;1.58;1.35;;;19.40;99.90;;;;;;5116972;27;20593;-64
2022/05/24 04:52:09;;;;;;;2.65;1.60;;;19.40;99.90;;;;;;5135623;27;20291;-66
2022/05/24 04:54:35;;;;;;;4.70;1.70;;;19.50;99.90;;;;;;5136183;27;20176;-64
2022/05/24 04:57:00;;;;;;;4.60;1.55;;;19.60;99.90;;;;;;5136173;27;20595;-65
2022/05/24 04:59:26;;;;;;;4.18;1.50;;;19.60;99.90;;;;;;5135914;27;20168;-66
2022/05/24 05:01:52;;;;;;;3.17;1.52;;;19.60;99.90;;;;;;5134908;27;20212;-66
2022/05/24 05:04:19;;;;;;;3.03;1.40;;;19.60;99.90;;;;;;5135238;27;20154;-65
2022/05/24 05:06:45;;;;;;;1.75;1.40;;;19.60;99.90;;;;;;5135536;27;20232;-65
2022/05/24 05:09:12;;;;;;;4.50;1.70;;;19.60;99.90;;;;;;5135149;27;20603;-66
2022/05/24 05:11:38;;;;;;;2.45;1.60;;;19.60;99.90;;;;;;5135474;27;20157;-66
2022/05/24 05:14:04;;;;;;;2.00;1.60;;;19.70;99.90;;;;;;5135668;27;20229;-66
2022/05/24 05:16:29;;;;;;;2.17;1.40;;;19.90;99.90;;;;;;5134904;27;20471;-66
2022/05/24 05:18:55;;;;;;;2.65;2.08;;;19.90;99.90;;;;;;5136608;27;20611;-65
2022/05/24 05:21:21;;;;;;;7.45;2.47;;;19.80;99.90;;;;;;5137365;27;20705;-65
2022/05/24 05:23:47;;;;;;;5.22;1.98;;;19.80;99.90;;;;;;5135246;27;20165;-65
2022/05/24 05:26:14;;;;;;;2.67;2.10;;;19.80;99.90;;;;;;5135182;27;20168;-66
2022/05/24 05:28:40;;;;;;;2.15;1.58;;;19.90;99.90;;;;;;5135192;27;20292;-66
2022/05/24 05:31:16;;;;;;;2.13;1.65;;;19.90;99.90;;;;;;5135129;27;20563;-66
2022/05/24 05:33:44;;;;;;;1.92;1.25;;;20.00;99.90;;;;;;5134884;27;20260;-65
2022/05/24 05:36:10;;;;;;;3.97;1.80;;;19.90;99.90;;;;;;5134951;27;20172;-65
2022/05/24 05:38:36;;;;;;;1.83;1.50;;;20.00;99.90;;;;;;5134724;27;20240;-64
2022/05/24 05:41:04;;;;;;;2.85;1.85;;;19.90;99.90;;;;;;5135136;27;20200;-65
2022/05/24 05:43:30;;;;;;;1.83;1.23;;;19.80;99.90;;;;;;5135001;27;20199;-65
2022/05/24 05:45:58;;;;;;;2.42;1.40;;;20.00;99.90;;;;;;5134898;27;20161;-66
2022/05/24 05:48:25;;;;;;;1.92;1.40;;;20.10;99.90;;;;;;5134637;27;20165;-65
2022/05/24 05:50:51;;;;;;;1.55;1.40;;;20.20;99.90;;;;;;5135139;28;20189;-64
2022/05/24 05:53:18;;;;;;;1.65;1.50;;;20.20;99.90;;;;;;5135590;28;20169;-66
2022/05/24 05:55:44;;;;;;;3.55;1.40;;;20.20;99.90;;;;;;5137964;28;20185;-67
2022/05/24 05:58:10;;;;;;;1.70;1.27;;;20.20;99.90;;;;;;5124257;28;20314;-68
2022/05/24 06:00:37;;;;;;;2.50;1.40;;;20.10;99.90;;;;;;5143338;28;20254;-65
2022/05/24 06:03:03;;;;;;;2.30;1.50;;;20.10;99.90;;;;;;5143420;28;20248;-65
2022/05/24 06:05:29;;;;;;;2.17;1.60;;;20.00;99.90;;;;;;5137644;28;20177;-66
2022/05/24 06:07:56;;;;;;;1.55;1.30;;;19.90;99.90;;;;;;5135185;28;20228;-64
2022/05/24 06:10:23;;;;;;;2.45;1.40;;;20.10;99.90;;;;;;5133995;28;20630;-68
2022/05/24 06:12:49;;;;;;;1.70;1.42;;;20.20;99.90;;;;;;5136073;27;20260;-66
2022/05/24 06:15:15;;;;;;;2.22;1.77;;;20.40;99.90;;;;;;5138432;27;20201;-66
2022/05/24 06:17:45;;;;;;;3.17;2.08;;;20.60;99.90;;;;;;5138764;27;20157;-67
2022/05/24 06:20:12;;;;;;;2.95;1.52;;;20.70;99.90;;;;;;5138815;27;20172;-66
2022/05/24 06:22:37;;;;;;;2.15;1.35;;;20.80;99.90;;;;;;5138694;27;20215;-67
2022/05/24 06:25:04;;;;;;;4.25;1.67;;;20.90;99.90;;;;;;5138592;27;20169;-65
2022/05/24 06:27:30;;;;;;;2.38;1.88;;;21.00;99.90;;;;;;5138178;27;20154;-65
2022/05/24 06:29:56;;;;;;;5.15;1.73;;;21.00;99.90;;;;;;5138702;27;20169;-66
2022/05/24 06:32:22;;;;;;;2.55;1.67;;;21.00;99.90;;;;;;5138769;27;20165;-66
2022/05/24 06:34:49;;;;;;;2.38;1.50;;;21.00;99.90;;;;;;5138378;27;20191;-66
2022/05/24 06:37:17;;;;;;;3.80;1.77;;;20.90;99.90;;;;;;5138603;27;20574;-65
2022/05/24 06:39:44;;;;;;;3.78;1.40;;;21.00;99.90;;;;;;5138572;27;20176;-68
2022/05/24 06:42:10;;;;;;;1.88;1.60;;;21.00;99.90;;;;;;5138134;27;20181;-66
2022/05/24 06:44:35;;;;;;;1.63;1.40;;;21.10;99.90;;;;;;5143030;27;20177;-66
2022/05/24 06:47:01;;;;;;;3.28;1.85;;;21.00;99.90;;;;;;5138736;27;20158;-65
2022/05/24 06:49:27;;;;;;;4.03;1.83;;;20.90;99.90;;;;;;5119488;27;20222;-66
2022/05/24 06:51:52;;;;;;;1.98;1.70;;;21.00;99.90;;;;;;5138528;27;20162;-67
2022/05/24 06:54:18;;;;;;;1.65;1.55;;;20.90;99.90;;;;;;5137729;27;20240;-63
2022/05/24 06:56:44;;;;;;;1.88;1.60;;;21.00;99.90;;;;;;5138309;27;20158;-66
2022/05/24 07:04:38;;;;;;;2.85;1.80;;;20.90;99.90;;;;;;5137525;27;20161;-67
2022/05/24 07:07:04;;;;;;;5.10;1.50;;;20.80;99.90;;;;;;5137468;27;20217;-65
2022/05/24 07:09:31;;;;;;;2.30;1.58;;;20.80;99.90;;;;;;5137674;27;20158;-66
2022/05/24 07:11:58;;;;;;;2.20;1.75;;;20.90;99.90;;;;;;5137694;27;20260;-66
2022/05/24 07:14:23;;;;;;;3.92;1.58;;;20.80;99.90;;;;;;5137760;27;20167;-65
2022/05/24 07:16:49;;;;;;;2.35;1.80;;;21.00;99.90;;;;;;5137738;27;20585;-65
2022/05/24 07:19:15;;;;;;;3.83;2.17;;;21.00;99.90;;;;;;5137806;27;20162;-64
2022/05/24 07:21:40;;;;;;;2.95;1.83;;;21.00;99.90;;;;;;5138163;27;20657;-65
2022/05/24 07:24:06;;;;;;;2.53;1.83;;;21.10;99.90;;;;;;5142722;27;20172;-67
2022/05/24 07:26:32;;;;;;;1.98;1.80;;;21.20;99.90;;;;;;5144947;27;20165;-65
2022/05/24 07:28:57;;;;;;;4.07;1.70;;;21.20;99.90;;;;;;5142675;27;20188;-65
2022/05/24 07:31:23;;;;;;;3.28;1.85;;;21.10;99.90;;;;;;5142147;27;20681;-65
2022/05/24 07:33:48;;;;;;;2.08;1.83;;;21.20;99.90;;;;;;5142590;27;20162;-66
2022/05/24 07:36:14;;;;;;;2.35;1.80;;;21.40;99.90;;;;;;5142482;27;20252;-65
2022/05/24 07:38:40;;;;;;;1.90;1.48;;;21.50;99.90;;;;;;5142796;27;20162;-66
2022/05/24 07:46:34;;;;;;;2.85;2.05;;;21.60;99.90;;;;;;5139784;27;20156;-65
2022/05/24 07:49:00;;;;;;;2.05;1.85;;;21.50;99.90;;;;;;5141308;27;20169;-66
2022/05/24 07:51:26;;;;;;;6.72;2.30;;;21.40;99.90;;;;;;5148009;27;20184;-64
2022/05/24 07:53:52;;;;;;;2.65;1.88;;;21.30;99.90;;;;;;5148570;27;20173;-64
2022/05/24 07:56:19;;;;;;;5.85;2.10;;;21.40;99.90;;;;;;5147150;27;20161;-65
2022/05/24 07:58:45;;;;;;;1.65;1.50;;;21.80;99.90;;;;;;5144445;27;20158;-65
2022/05/24 08:01:11;;;;;;;3.45;2.17;;;21.80;99.90;;;;;;5143236;27;20150;-65
2022/05/24 08:03:38;;;;;;;5.00;1.92;;;21.70;99.90;;;;;;5146674;27;20210;-66
2022/05/24 08:06:05;;;;;;;2.97;2.13;;;21.70;99.90;;;;;;5145468;27;20154;-65
2022/05/24 08:08:30;;;;;;;2.70;1.88;;;21.50;99.90;;;;;;5145584;27;20161;-64
2022/05/24 08:10:56;;;;;;;2.35;2.15;;;21.30;99.90;;;;;;5142563;27;20161;-65
2022/05/24 08:13:22;;;;;;;3.35;1.80;;;21.20;99.90;;;;;;5147313;27;20448;-65
2022/05/24 08:15:53;;;;;;;2.50;2.00;;;21.30;99.90;;;;;;5145304;27;20198;-66
2022/05/24 08:18:21;;;;;;;1.73;1.60;;;21.30;99.90;;;;;;5146292;27;20157;-65
2022/05/24 08:20:47;;;;;;;5.60;1.80;;;21.40;99.90;;;;;;5141329;27;20257;-65
2022/05/24 08:23:13;;;;;;;3.05;1.85;;;21.40;99.90;;;;;;5136149;27;20263;-66
2022/05/24 08:25:39;;;;;;;3.03;2.00;;;21.40;99.90;;;;;;5136044;27;20157;-66
2022/05/24 08:28:07;;;;;;;2.03;1.80;;;21.40;99.90;;;;;;5135872;27;20162;-65
2022/05/24 08:30:36;;;;;;;2.30;1.63;;;21.40;99.90;;;;;;5135991;27;20589;-65
2022/05/24 08:33:04;;;;;;;1.45;1.35;;;21.60;99.90;;;;;;5135678;27;20200;-67
2022/05/24 08:35:32;;;;;;;2.00;1.75;;;21.50;99.90;;;;;;5135354;27;20157;-64
2022/05/24 08:37:58;;;;;;;2.03;1.70;;;21.30;99.90;;;;;;5136312;27;20166;-65
2022/05/24 08:40:24;;;;;;;2.47;1.90;;;21.30;99.90;;;;;;5135724;27;20158;-66
2022/05/24 08:43:11;;;;;;;2.80;1.85;;;21.30;99.90;;;;;;5136099;27;20260;-65
2022/05/24 08:48:47;;;;;;;2.25;1.80;;;21.20;99.90;;;;;;5135406;27;20163;-64
2022/05/24 08:51:27;;;;;;;3.40;1.73;;;21.40;99.90;;;;;;5135738;27;20189;-65
2022/05/24 08:53:57;;;;;;;3.40;2.47;;;21.30;99.90;;;;;;5135467;27;20505;-66
2022/05/24 08:56:32;;;;;;;2.85;1.90;;;21.30;99.90;;;;;;5135892;27;20165;-65
2022/05/24 08:59:14;;;;;;;2.45;1.73;;;21.60;99.90;;;;;;5135651;27;20252;-68
2022/05/24 09:01:42;;;;;;;3.40;2.17;;;22.00;99.90;;;;;;5117107;27;20201;-65
2022/05/24 09:04:09;;;;;;;4.97;1.80;;;22.50;99.90;;;;;;5135354;27;20172;-66
2022/05/24 09:06:47;;;;;;;3.20;2.55;;;22.70;99.90;;;;;;5135942;27;20217;-66
2022/05/24 09:09:38;;;;;;;3.38;1.90;;;22.70;99.90;;;;;;5135621;27;20515;-65
2022/05/24 09:12:20;;;;;;;5.05;1.95;;;22.90;99.90;;;;;;5135051;27;20191;-63
2022/05/24 09:14:54;;;;;;;2.58;1.80;;;22.80;99.90;;;;;;5134768;27;20593;-65
2022/05/24 09:17:28;;;;;;;2.65;2.00;;;22.60;99.90;;;;;;5134650;27;20167;-66
2022/05/24 09:19:54;;;;;;;3.08;2.13;;;22.50;99.90;;;;;;5135142;27;20230;-65
2022/05/24 09:22:22;;;;;;;2.20;2.00;;;22.40;99.90;;;;;;5134340;27;20644;-65
2022/05/24 09:24:56;;;;;;;3.03;2.50;;;22.30;99.90;;;;;;5116931;27;20182;-65
2022/05/24 09:27:30;;;;;;;2.25;2.05;;;22.10;99.90;;;;;;5134515;27;20598;-66
2022/05/24 09:29:59;;;;;;;2.90;2.10;;;22.10;99.90;;;;;;5099817;27;20698;-66
2022/05/24 09:32:45;;;;;;;1.92;1.65;;;22.10;99.90;;;;;;5134711;27;20174;-66
2022/05/24 09:35:23;;;;;;;4.18;2.13;;;22.20;99.90;;;;;;5134810;27;20170;-67
2022/05/24 09:38:04;;;;;;;3.15;2.30;;;22.40;99.90;;;;;;5134422;27;20254;-66
2022/05/24 09:40:42;;;;;;;2.67;2.47;;;22.20;99.90;;;;;;5134540;27;20605;-64
2022/05/24 09:43:43;;;;;;;2.35;1.90;;;22.00;99.90;;;;;;5134628;27;20193;-64
2022/05/24 09:46:24;;;;;;;1.83;1.73;;;21.70;99.90;;;;;;5131259;27;20200;-64
2022/05/24 09:49:19;;;;;;;4.70;2.00;;;21.50;99.90;;;;;;5134969;27;20610;-64
2022/05/24 09:51:45;;;;;;;2.97;1.88;;;21.40;99.90;;;;;;5134386;27;20168;-68
2022/05/24 09:54:18;;;;;;;4.93;2.17;;;21.30;99.90;;;;;;5134842;28;20162;-65
2022/05/24 09:57:11;;;;;;;2.30;2.10;;;21.40;99.90;;;;;;5134973;28;20166;-64
2022/05/24 09:59:41;;;;;;;2.78;1.95;;;21.70;99.90;;;;;;5134404;28;20161;-67
2022/05/24 10:02:29;;;;;;;2.80;1.80;;;21.80;99.90;;;;;;5134771;28;20508;-67
2022/05/24 10:04:55;;;;;;;4.20;2.00;;;21.80;99.90;;;;;;5134942;28;20237;-66
2022/05/24 10:07:22;;;;;;;3.03;1.77;;;21.90;99.90;;;;;;5135563;28;20236;-65
2022/05/24 10:09:50;;;;;;;2.50;2.10;;;22.00;99.90;;;;;;5116572;28;20601;-65
2022/05/24 10:12:52;;;;;;;1.88;1.77;;;22.10;99.90;;;;;;5142501;28;20157;-65
2022/05/24 10:15:37;;;;;;;2.53;2.33;;;22.10;99.90;;;;;;5154131;28;20158;-65
2022/05/24 10:18:34;;;;;;;3.70;2.03;;;22.20;99.90;;;;;;5134383;28;20157;-63
2022/05/24 10:21:11;;;;;;;2.40;2.03;;;22.50;99.90;;;;;;5134664;28;20161;-66
2022/05/24 10:23:43;;;;;;;4.35;2.60;;;22.50;99.90;;;;;;5134139;28;20165;-65
2022/05/24 10:26:15;;;;;;;2.28;2.08;;;22.70;99.90;;;;;;5134392;28;20165;-64
2022/05/24 10:28:43;;;;;;;2.45;2.25;;;22.80;99.90;;;;;;5134046;28;20173;-64
2022/05/24 10:31:25;;;;;;;2.50;2.13;;;23.00;99.90;;;;;;5134071;28;20499;-65
2022/05/24 10:40:43;;;;;;;2.25;1.83;;;23.40;99.90;;;;;;5134484;28;20659;-63
2022/05/24 10:43:44;;;;;;;2.28;2.00;;;23.30;99.90;;;;;;5134874;28;20224;-65
2022/05/24 10:46:16;;;;;;;3.92;1.90;;;23.50;99.90;;;;;;5109783;28;20200;-65
2022/05/24 10:49:06;;;;;;;3.08;1.95;;;23.70;99.90;;;;;;5134052;28;20170;-67
2022/05/24 10:51:47;;;;;;;5.40;2.08;;;23.70;99.90;;;;;;5134100;28;20169;-65
2022/05/24 10:54:40;;;;;;;3.75;2.00;;;23.30;99.90;;;;;;5133965;28;20167;-67
2022/05/24 10:57:30;;;;;;;4.90;1.75;;;23.10;99.90;;;;;;5134034;28;20214;-64
2022/05/24 11:00:12;;;;;;;1.80;1.60;;;23.10;99.90;;;;;;5136742;27;20270;-65
2022/05/24 11:02:47;;;;;;;2.45;1.55;;;22.90;99.90;;;;;;5138129;27;20216;-66
2022/05/24 11:05:16;;;;;;;2.15;1.50;;;22.90;99.90;;;;;;5137400;27;20236;-67
2022/05/24 11:07:42;;;;;;;2.00;1.30;;;23.10;99.90;;;;;;5137004;27;20328;-67
2022/05/24 11:10:20;;;;;;;2.13;1.65;;;23.30;99.90;;;;;;5137322;27;20169;-68
2022/05/24 11:12:54;;;;;;;1.42;1.30;;;23.30;99.90;;;;;;5137236;27;20166;-67
2022/05/24 11:15:23;;;;;;;3.15;2.47;;;23.40;99.90;;;;;;5136990;27;20222;-66
2022/05/24 11:17:50;;;;;;;2.95;1.60;;;23.40;99.90;;;;;;5137153;27;20256;-65
2022/05/24 11:20:33;;;;;;;1.30;1.20;;;23.60;99.90;;;;;;5137017;27;20228;-66
2022/05/24 11:23:18;;;;;;;2.60;1.42;;;23.90;99.90;;;;;;5136753;27;20201;-67
2022/05/24 11:25:53;;;;;;;3.92;1.50;;;23.80;99.90;;;;;;5136791;27;20600;-65
2022/05/24 11:28:27;;;;;;;1.77;1.50;;;24.20;98.40;;;;;;5136769;27;20161;-65
2022/05/24 11:30:54;;;;;;;2.47;1.30;;;24.50;96.90;;;;;;5136680;27;20271;-64
2022/05/24 11:33:40;;;;;;;7.35;1.38;;;24.20;96.00;;;;;;5136733;27;20168;-64
2022/05/24 11:36:27;;;;;;;4.45;1.40;;;24.40;96.30;;;;;;5136804;27;20282;-66
2022/05/24 11:38:53;;;;;;;3.70;2.00;;;24.50;95.50;;;;;;5137205;27;20229;-66
2022/05/24 11:41:28;;;;;;;4.40;1.60;;;24.60;95.00;;;;;;5136665;27;20541;-65
2022/05/24 11:43:54;;;;;;;3.55;1.67;;;24.50;94.00;;;;;;5136485;27;20158;-68
2022/05/24 11:46:32;;;;;;;1.30;1.20;;;24.20;95.00;;;;;;5136501;27;20165;-66
2022/05/24 11:48:59;;;;;;;4.45;1.52;;;24.20;95.30;;;;;;5136696;27;20161;-67
2022/05/24 11:51:42;;;;;;;4.25;1.27;;;24.30;95.60;;;;;;5137138;27;20626;-69
2022/05/24 11:54:19;;;;;;;1.85;1.30;;;24.40;94.00;;;;;;5136483;27;20154;-67
2022/05/24 11:56:53;;;;;;;2.15;1.23;;;24.40;94.00;;;;;;5118465;27;20207;-66
2022/05/24 11:59:54;;;;;;;5.10;1.40;;;24.20;90.10;;;;;;5136698;27;20591;-64
2022/05/24 12:02:34;;;;;;;1.70;1.10;;;24.00;90.20;;;;;;5073062;28;20291;-66
2022/05/24 12:08:22;;;;;;;1.40;1.30;;;24.00;89.00;;;;;;5072264;28;20684;-66
2022/05/24 12:10:55;;;;;;;1.27;1.17;;;24.00;88.60;;;;;;5055748;28;20241;-67
2022/05/24 12:13:31;;;;;;;1.48;1.20;;;24.00;88.60;;;;;;5056659;28;20171;-66
2022/05/24 12:16:03;;;;;;;1.48;1.30;;;24.00;88.60;;;;;;5073685;28;20455;-66
2022/05/24 12:19:03;;;;;;;1.25;0.98;;;24.00;89.50;;;;;;5073479;28;20237;-65
2022/05/24 12:21:47;;;;;;;2.25;1.30;;;24.10;90.70;;;;;;5072878;28;20243;-66
2022/05/24 12:24:36;;;;;;;5.28;1.38;;;24.10;88.80;;;;;;5055502;28;20183;-68
2022/05/24 12:27:35;;;;;;;1.50;1.35;;;24.00;86.40;;;;;;5072537;28;20233;-66
2022/05/24 12:30:21;;;;;;;1.80;1.00;;;23.90;88.60;;;;;;5072183;28;20279;-65
2022/05/24 12:32:48;;;;;;;1.52;1.20;;;23.90;88.50;;;;;;5056044;28;20589;-65
2022/05/24 12:35:16;;;;;;;2.20;1.20;;;23.80;88.20;;;;;;5075407;28;20506;-63
2022/05/24 12:37:50;;;;;;;3.08;1.13;;;23.70;89.70;;;;;;5115136;28;20235;-66
2022/05/24 12:40:28;;;;;;;1.60;1.13;;;23.60;90.40;;;;;;5115384;28;20162;-65
2022/05/24 12:42:56;;;;;;;1.77;1.33;;;23.70;91.10;;;;;;5115565;28;20186;-66
2022/05/24 12:45:31;;;;;;;1.23;1.13;;;23.50;91.50;;;;;;5097096;28;20273;-64
2022/05/24 12:47:57;;;;;;;2.83;1.30;;;23.40;91.10;;;;;;5114931;28;20214;-67
2022/05/24 12:50:50;;;;;;;2.30;1.48;;;23.30;91.30;;;;;;5115305;28;20154;-66
2022/05/24 12:53:22;;;;;;;1.90;1.48;;;23.20;92.00;;;;;;5113465;28;20193;-65
2022/05/24 12:56:00;;;;;;;3.60;1.35;;;23.20;92.10;;;;;;5115071;28;20150;-65
2022/05/24 12:58:33;;;;;;;1.98;1.60;;;23.10;92.30;;;;;;5118180;28;20158;-65
2022/05/24 13:01:15;;;;;;;1.65;1.23;;;23.10;92.70;;;;;;5120956;28;20166;-68
2022/05/24 13:03:47;;;;;;;0.98;0.90;;;23.20;92.40;;;;;;5122420;28;20253;-66
2022/05/24 13:06:30;;;;;;;1.10;1.00;;;23.20;92.40;;;;;;5127031;27;20197;-66
2022/05/24 13:09:19;;;;;;;1.33;1.10;;;23.30;92.40;;;;;;5115847;27;20178;-65
2022/05/24 13:12:07;;;;;;;2.35;1.10;;;23.20;91.80;;;;;;5116005;28;20196;-64
2022/05/24 13:14:58;;;;;;;3.80;2.70;;;23.20;92.10;;;;;;5114855;28;20256;-64
2022/05/24 13:17:28;;;;;;;3.45;2.28;;;23.10;92.40;;;;;;5116275;28;20574;-66
2022/05/24 13:20:09;;;;;;;3.40;1.50;;;23.10;91.80;;;;;;5126068;28;20158;-70
2022/05/24 13:22:48;;;;;;;1.30;1.10;;;23.20;92.40;;;;;;5131146;28;20318;-66
2022/05/24 13:25:21;;;;;;;3.25;1.30;;;23.10;91.50;;;;;;5127797;28;20163;-69
2022/05/24 13:27:57;;;;;;;4.30;1.40;;;23.10;90.50;;;;;;5131825;28;20162;-67
2022/05/24 13:33:33;;;;;;;1.20;1.10;;;23.10;90.90;;;;;;5127995;28;20193;-65
2022/05/24 13:35:59;;;;;;;1.98;1.35;;;23.00;90.90;;;;;;5121337;28;20502;-65
2022/05/24 13:38:26;;;;;;;2.88;1.10;;;23.10;90.90;;;;;;5115340;28;20154;-64
2022/05/24 13:40:57;;;;;;;1.15;1.08;;;23.10;91.90;;;;;;5114205;28;20178;-64
2022/05/24 13:43:33;;;;;;;3.67;1.13;;;22.90;91.00;;;;;;5113948;28;20198;-65
2022/05/24 13:46:14;;;;;;;1.10;1.00;;;22.90;91.80;;;;;;5113992;28;20221;-65
2022/05/24 13:48:42;;;;;;;3.63;1.50;;;23.00;92.60;;;;;;5113617;28;20173;-63